Latest Weather Observations for Bulman

IDD60801

Issued at 1:01 pm CST Saturday 23 September 2017 (issued every 30 minutes, with the page automatically refreshed every 10 minutes)

About weather observations | Map of weather stations | Latest weather observations for NT | Other Formats
Station Details ID: 014627 Name: BULMAN Lat: -13.67 Lon: 134.34 Height: 103.4 m
Data from the previous 72 hours. | See also: Recent months at Bulman
Date/Time
CST
Temp
°C
App
Temp
°C
Dew
Point
°C
Rel
Hum
%
Delta-T
°C
Wind Press
QNH
hPa
Press
MSL
hPa
Rain since
9am
mm
Dir  Spd
km/h
Gust
km/h
Spd
kts
Gust
kts
23/01:00pm 36.1 34.8 14.7 28 13.4 NE 15 24 8 13 1011.8 1011.2 0.0
23/12:30pm 35.1 34.4 14.4 29 12.8 NNE 11 24 6 13 1012.4 1011.8 0.0
23/12:00pm 35.2 34.9 14.5 29 12.9 NNE 9 19 5 10 1013.1 1012.5 0.0
23/11:30am 33.8 33.8 15.3 33 11.6 N 9 20 5 11 1013.7 1013.1 0.0
23/11:00am 33.0 33.4 16.4 37 10.5 NNE 9 19 5 10 1014.3 1013.7 0.0
23/10:30am 31.6 33.2 18.2 44 8.7 NW 7 17 4 9 1014.7 1014.1 0.0
23/10:00am 30.2 31.4 18.3 49 7.7 NNE 9 19 5 10 1015.1 1014.5 0.0
23/09:30am 29.0 30.0 17.8 50 7.1 N 9 15 5 8 1015.3 1014.7 0.0
23/09:00am 28.5 31.1 20.5 62 5.3 NNW 7 13 4 7 1015.3 1014.7 0.0
23/08:30am 26.9 29.7 20.5 68 4.2 NW 6 9 3 5 1015.2 1014.6 0.0
23/08:00am 25.9 28.9 19.3 67 4.3 NE 2 7 1 4 1015.0 1014.4 0.0
23/07:30am 23.7 26.9 18.8 74 3.1 CALM 0 0 0 0 1014.7 1014.1 0.0
23/07:00am 21.0 23.1 18.2 84 1.7 SSW 4 7 2 4 1014.3 1013.7 0.0
23/06:30am 19.6 21.9 16.8 84 1.7 CALM 0 0 0 0 1013.9 1013.3 0.0
23/06:00am 19.7 21.8 16.3 81 2.0 CALM 0 0 0 0 1013.5 1012.9 0.0
23/05:30am 20.1 21.1 16.3 79 2.3 NNW 6 6 3 3 1013.2 1012.6 0.0
23/05:00am 20.3 21.4 16.5 79 2.3 NNW 6 7 3 4 1012.9 1012.3 0.0
23/04:30am 20.5 22.5 16.1 76 2.7 CALM 0 0 0 0 1012.6 1012.0 0.0
23/04:00am 20.8 22.8 16.0 74 2.9 CALM 0 0 0 0 1012.4 1011.8 0.0
23/03:30am 21.1 23.1 16.1 73 3.0 CALM 0 0 0 0 1012.5 1011.9 0.0
23/03:00am 21.4 23.4 16.1 72 3.2 CALM 0 0 0 0 1012.6 1012.0 0.0
23/02:30am 21.8 23.8 16.1 70 3.5 CALM 0 0 0 0 1012.7 1012.1 0.0
23/02:00am 22.2 24.2 16.0 68 3.8 CALM 0 0 0 0 1012.9 1012.3 0.0
23/01:30am 22.6 24.6 15.9 66 4.1 CALM 0 0 0 0 1013.1 1012.5 0.0
23/01:00am 23.2 25.1 15.8 63 4.5 CALM 0 0 0 0 1013.2 1012.6 0.0
23/12:30am 23.8 25.6 15.6 60 5.0 CALM 0 0 0 0 1013.5 1012.9 0.0
23/12:00am 24.5 26.3 15.4 57 5.5 CALM 0 0 0 0 1013.9 1013.3 0.0
 
Date/Time
CST
Temp
°C
App
Temp
°C
Dew
Point
°C
Rel
Hum
%
Delta-T
°C
Wind Press
QNH
hPa
Press
MSL
hPa
Rain since
9am
mm
Dir  Spd
km/h
Gust
km/h
Spd
kts
Gust
kts
22/11:30pm 25.5 27.2 15.2 53 6.2 CALM 0 0 0 0 1014.2 1013.6 0.0
22/11:00pm 26.7 27.9 14.8 48 7.2 E 2 6 1 3 1014.3 1013.7 0.0
22/10:30pm 28.0 28.3 15.0 45 7.9 ESE 7 11 4 6 1014.2 1013.6 0.0
22/10:00pm 29.0 28.6 15.2 43 8.5 E 11 19 6 10 1013.8 1013.2 0.0
22/09:30pm 29.4 29.2 14.8 41 8.9 ENE 9 17 5 9 1013.6 1013.0 0.0
22/09:00pm 30.0 28.8 14.1 37 9.6 ENE 13 17 7 9 1013.2 1012.6 0.0
22/08:30pm 30.7 30.2 13.9 36 10.2 ENE 9 15 5 8 1012.6 1012.0 0.0
22/08:00pm 31.6 30.3 13.8 34 10.8 ENE 13 24 7 13 1012.1 1011.5 0.0
22/07:30pm 32.3 30.9 13.5 32 11.4 ENE 13 22 7 12 1011.5 1010.9 0.0
22/07:00pm 32.9 32.3 13.5 30 11.8 E 9 15 5 8 1010.9 1010.3 0.0
22/06:30pm 33.6 33.0 13.6 29 12.2 ENE 9 15 5 8 1010.6 1010.0 0.0
22/06:00pm 34.6 33.4 12.9 27 13.2 ENE 11 19 6 10 1010.2 1009.6 0.0
22/05:30pm 35.7 33.5 12.0 24 14.2 ENE 15 22 8 12 1009.9 1009.3 0.0
22/05:00pm 36.4 34.9 10.6 21 15.2 NE 9 19 5 10 1009.7 1009.1 0.0
22/04:30pm 36.3 34.4 10.5 21 15.2 NE 11 20 6 11 1009.7 1009.1 0.0
22/04:00pm 37.8 35.7 11.0 20 16.0 NE 13 22 7 12 1009.7 1009.1 0.0
22/03:30pm 37.2 35.1 9.7 19 16.1 NNE 11 20 6 11 1009.9 1009.3 0.0
22/03:00pm 37.2 35.9 11.2 21 15.5 NE 9 17 5 9 1010.1 1009.5 0.0
22/02:30pm 36.9 34.8 11.0 21 15.4 E 13 26 7 14 1010.4 1009.8 0.0
22/02:00pm 37.1 35.2 10.4 20 15.7 NNE 11 19 6 10 1010.8 1010.2 0.0
22/01:30pm 36.7 34.9 12.2 23 14.8 NNE 13 24 7 13 1011.3 1010.7 0.0
22/01:00pm 36.8 35.4 13.5 24 14.3 NNE 13 24 7 13 1012.0 1011.4 0.0
22/12:30pm 35.6 34.3 13.7 27 13.5 NNE 13 22 7 12 1012.6 1012.0 0.0
22/12:00pm 34.6 34.0 14.5 30 12.5 NE 11 19 6 10 1013.2 1012.6 0.0
22/11:30am 34.0 33.9 15.9 33 11.4 NNE 11 17 6 9 1013.7 1013.1 0.0
22/11:00am 32.7 33.0 16.1 37 10.5 NNE 9 17 5 9 1014.2 1013.6 0.0
22/10:30am 31.7 32.0 16.0 38 9.8 NE 9 24 5 13 1014.6 1014.0 0.0
22/10:00am 30.2 30.7 16.6 44 8.6 NNE 9 17 5 9 1014.9 1014.3 0.0
22/09:30am 29.0 30.3 18.4 52 6.8 NNE 9 13 5 7 1015.1 1014.5 0.0
22/09:00am 27.7 29.1 18.7 58 5.8 N 9 13 5 7 1015.1 1014.5 0.0
22/08:30am 26.0 28.2 19.6 68 4.1 NNW 7 11 4 6 1014.9 1014.3 0.0
22/08:00am 24.7 27.0 19.5 73 3.4 NNW 6 9 3 5 1014.7 1014.1 0.0
22/07:30am 21.8 24.9 18.6 82 2.0 CALM 0 0 0 0 1014.4 1013.8 0.0
22/07:00am 19.5 22.2 17.8 90 1.0 CALM 0 0 0 0 1013.9 1013.3 0.0
22/06:30am 18.8 21.2 16.9 89 1.2 CALM 0 0 0 0 1013.6 1013.0 0.0
22/06:00am 19.0 21.4 17.1 89 1.2 CALM 0 0 0 0 1013.1 1012.5 0.0
22/05:30am 19.4 21.9 17.2 87 1.3 CALM 0 0 0 0 1012.9 1012.3 0.0
22/05:00am 19.8 22.3 17.2 85 1.6 CALM 0 0 0 0 1012.6 1012.0 0.0
22/04:30am 20.4 23.0 17.6 84 1.7 CALM 0 0 0 0 1012.4 1011.8 0.0
22/04:00am 21.1 23.9 17.9 82 2.0 CALM 0 0 0 0 1012.2 1011.6 0.0
22/03:30am 21.9 24.1 17.5 76 2.7 NW 2 6 1 3 1012.2 1011.6 0.0
22/03:00am 22.8 24.5 18.6 77 2.7 NNW 7 9 4 5 1012.0 1011.4 0.0
22/02:30am 22.5 24.0 18.1 76 2.8 NNW 7 9 4 5 1012.1 1011.5 0.0
22/02:00am 21.9 23.2 16.2 70 3.5 N 4 7 2 4 1012.2 1011.6 0.0
22/01:30am 22.6 24.3 16.2 67 3.9 NW 2 7 1 4 1012.4 1011.8 0.0
22/01:00am 23.9 24.6 16.2 62 4.7 NNW 7 9 4 5 1012.5 1011.9 0.0
22/12:30am 23.5 23.8 15.0 59 5.1 N 7 11 4 6 1012.5 1011.9 0.0
22/12:00am 24.2 25.2 14.3 54 5.9 N 2 7 1 4 1012.8 1012.2 0.0
 
Date/Time
CST
Temp
°C
App
Temp
°C
Dew
Point
°C
Rel
Hum
%
Delta-T
°C
Wind Press
QNH
hPa
Press
MSL
hPa
Rain since
9am
mm
Dir  Spd
km/h
Gust
km/h
Spd
kts
Gust
kts
21/11:30pm 25.4 26.3 13.9 49 6.8 NNE 2 7 1 4 1013.1 1012.5 0.0
21/11:00pm 26.5 26.7 14.3 47 7.3 NNE 6 11 3 6 1013.0 1012.4 0.0
21/10:30pm 27.4 28.4 15.4 48 7.3 ENE 4 11 2 6 1013.1 1012.5 0.0
21/10:00pm 28.3 28.4 15.6 46 7.8 E 9 15 5 8 1012.8 1012.2 0.0
21/09:30pm 29.2 28.4 15.0 42 8.7 E 13 24 7 13 1012.5 1011.9 0.0
21/09:00pm 29.8 28.2 12.7 35 10.1 E 13 20 7 11 1012.1 1011.5 0.0
21/08:30pm 30.6 28.8 12.0 32 10.9 E 13 19 7 10 1011.7 1011.1 0.0
21/08:00pm 31.0 29.5 11.9 31 11.2 E 11 19 6 10 1011.3 1010.7 0.0
21/07:30pm 31.7 30.2 13.0 32 11.2 ENE 13 20 7 11 1010.9 1010.3 0.0
21/07:00pm 32.0 31.6 14.2 34 10.9 ENE 9 15 5 8 1010.5 1009.9 0.0
21/06:30pm 32.8 31.4 14.4 33 11.3 ENE 15 24 8 13 1010.2 1009.6 0.0
21/06:00pm 33.4 32.2 14.0 31 11.9 E 13 22 7 12 1009.9 1009.3 0.0
21/05:30pm 34.1 32.4 14.6 31 12.1 ENE 17 32 9 17 1009.7 1009.1 0.0
21/05:00pm 36.3 34.0 13.1 25 14.2 E 17 28 9 15 1009.3 1008.7 0.0
21/04:30pm 36.7 34.9 12.2 23 14.8 E 13 19 7 10 1009.2 1008.6 0.0
21/04:00pm 36.9 34.2 11.7 22 15.1 ENE 17 30 9 16 1009.3 1008.7 0.0
21/03:30pm 36.8 34.1 11.6 22 15.1 ENE 17 30 9 16 1009.5 1008.9 0.0
21/03:00pm 36.0 35.0 12.3 24 14.3 E 9 19 5 10 1009.8 1009.2 0.0
21/02:30pm 36.8 34.7 12.3 23 14.8 E 15 28 8 15 1010.1 1009.5 0.0
21/02:00pm 36.2 34.7 13.0 24 14.1 E 13 26 7 14 1010.6 1010.0 0.0
21/01:30pm 36.4 34.4 12.6 24 14.5 E 15 26 8 14 1010.9 1010.3 0.0
21/01:00pm 35.9 34.1 13.4 26 13.8 E 15 24 8 13 1011.4 1010.8 0.0
21/12:30pm 36.0 34.5 15.2 29 13.1 ESE 17 24 9 13 1012.0 1011.4 0.0
21/12:00pm 34.4 33.5 15.8 33 11.7 E 15 26 8 14 1012.6 1012.0 0.0
21/11:30am 34.4 34.0 16.3 34 11.5 E 13 28 7 15 1013.1 1012.5 0.0
21/11:00am 33.0 32.7 16.4 37 10.5 NE 13 24 7 13 1013.6 1013.0 0.0
21/10:30am 32.3 32.9 18.5 44 9.0 E 13 20 7 11 1014.0 1013.4 0.0
21/10:00am 30.6 31.6 18.7 49 7.7 NE 11 20 6 11 1014.4 1013.8 0.0
21/09:30am 29.3 30.8 19.0 53 6.7 E 9 15 5 8 1014.4 1013.8 0.0
21/09:00am 28.3 30.6 19.8 60 5.6 NE 7 11 4 6 1014.6 1014.0 0.0
21/08:30am 27.0 30.6 21.3 71 3.8 N 4 7 2 4 1014.5 1013.9 0.0
21/08:00am 25.3 28.5 21.2 78 2.7 S 6 7 3 4 1014.4 1013.8 0.0
21/07:30am 22.7 26.9 21.0 90 1.1 CALM 0 0 0 0 1014.1 1013.5 0.0
21/07:00am 20.1 23.3 18.9 93 0.8 CALM 0 0 0 0 1013.5 1012.9 0.0
21/06:30am 19.9 23.0 18.7 93 0.8 CALM 0 0 0 0 1013.3 1012.7 0.0
21/06:00am 20.1 23.3 18.8 92 0.8 CALM 0 0 0 0 1012.8 1012.2 0.0
21/05:30am 20.3 23.6 19.0 92 0.8 CALM 0 0 0 0 1012.4 1011.8 0.0
21/05:00am 20.5 23.8 19.0 91 0.9 CALM 0 0 0 0 1012.2 1011.6 0.0
21/04:30am 20.9 24.3 19.4 91 1.0 CALM 0 0 0 0 1011.9 1011.3 0.0
21/04:00am 21.0 24.4 19.3 90 1.1 CALM 0 0 0 0 1011.7 1011.1 0.0
21/03:30am 21.5 25.0 19.6 89 1.2 CALM 0 0 0 0 1011.8 1011.2 0.0
21/03:00am 21.9 25.4 19.6 87 1.5 CALM 0 0 0 0 1012.0 1011.4 0.0
21/02:30am 22.5 26.2 19.9 85 1.7 CALM 0 0 0 0 1012.3 1011.7 0.0
21/02:00am 23.0 26.7 20.0 83 1.9 CALM 0 0 0 0 1012.5 1011.9 0.0
21/01:30am 23.8 27.1 19.9 79 2.5 NNW 2 7 1 4 1012.6 1012.0 0.0
21/01:00am 24.7 27.9 20.4 77 2.8 N 4 7 2 4 1013.0 1012.4 0.0
21/12:30am 25.6 28.5 20.6 74 3.3 NE 6 7 3 4 1013.2 1012.6 0.0
21/12:00am 26.3 29.1 20.8 71 3.6 NE 7 13 4 7 1013.5 1012.9 0.0
 
Date/Time
CST
Temp
°C
App
Temp
°C
Dew
Point
°C
Rel
Hum
%
Delta-T
°C
Wind Press
QNH
hPa
Press
MSL
hPa
Rain since
9am
mm
Dir  Spd
km/h
Gust
km/h
Spd
kts
Gust
kts
20/11:30pm 26.9 29.5 21.2 71 3.8 NE 9 13 5 7 1013.5 1012.9 0.0
20/11:00pm 27.3 29.6 21.3 69 4.0 NE 11 19 6 10 1013.5 1012.9 0.0
20/10:30pm 28.0 30.4 20.8 65 4.8 ENE 9 15 5 8 1013.3 1012.7 0.0
20/10:00pm 28.6 30.5 20.6 62 5.3 ENE 11 17 6 9 1013.3 1012.7 0.0
20/09:30pm 29.2 31.4 19.5 56 6.3 E 7 11 4 6 1013.3 1012.7 0.0
20/09:00pm 30.0 30.6 19.4 53 6.9 E 15 20 8 11 1013.0 1012.4 0.0
20/08:30pm 30.6 31.1 18.3 47 7.9 ESE 13 19 7 10 1012.6 1012.0 0.0
20/08:00pm 31.2 31.0 17.5 44 8.8 ESE 15 20 8 11 1012.1 1011.5 0.0
20/07:30pm 31.6 30.4 17.1 41 9.2 ESE 19 32 10 17 1011.6 1011.0 0.0
20/07:00pm 32.1 31.3 17.2 41 9.5 SE 17 28 9 15 1011.0 1010.4 0.0
20/06:30pm 32.6 32.3 16.4 37 10.3 SE 13 20 7 11 1010.7 1010.1 0.0
20/06:00pm 33.1 32.3 16.0 35 10.8 ESE 15 24 8 13 1010.3 1009.7 0.0
20/05:30pm 33.9 33.0 15.8 33 11.4 E 15 24 8 13 1010.0 1009.4 0.0
20/05:00pm 34.6 33.8 16.0 33 11.8 ESE 15 24 8 13 1009.7 1009.1 0.0
20/04:30pm 34.8 33.6 16.1 32 11.9 ESE 17 28 9 15 1009.6 1009.0 0.0
20/04:00pm 34.9 33.0 15.3 31 12.3 ESE 19 32 10 17 1009.8 1009.2 0.0
20/03:30pm 34.8 34.0 16.1 32 11.9 ESE 15 28 8 15 1009.9 1009.3 0.0
20/03:00pm 35.3 34.7 16.6 33 12.0 ESE 15 24 8 13 1010.1 1009.5 0.0
20/02:30pm 34.3 33.1 16.2 34 11.5 ESE 17 33 9 18 1010.6 1010.0 0.0
20/02:00pm 36.0 36.0 17.2 33 12.2 E 13 26 7 14 1011.1 1010.5 0.0
20/01:30pm 34.2 32.8 16.5 34 11.3 ESE 19 32 10 17 1011.8 1011.2 0.0

Other Formats:

Comma delimited format used in spreadsheet applications
http://www.bom.gov.au/fwo/IDD60801/IDD60801.94143.axf

JavaScript Object Notation format (JSON) in row-major order
http://www.bom.gov.au/fwo/IDD60801/IDD60801.94143.json